Time;durP1;ratioP1;P1;durP2;ratioP2;P2;SDS_P1;SDS_P2;PMS_P1;PMS_P2;Temp;Humidity;BMP_temperature;BMP_pressure;BME280_temperature;BME280_humidity;BME280_pressure;Samples;Min_cycle;Max_cycle;Signal;HPM_P1;HPM_P2
2022/11/20 00:01:15;;;;;;;2.97;2.67;;;;;;;4.13;100.00;98097.03;4140804;28;20213;-47
2022/11/20 00:03:17;;;;;;;3.13;2.92;;;;;;;4.24;100.00;98099.03;4141465;28;20229;-45
2022/11/20 00:05:20;;;;;;;2.53;2.33;;;;;;;4.37;100.00;98098.91;4136105;28;20217;-46
2022/11/20 00:07:22;;;;;;;2.30;2.10;;;;;;;4.27;100.00;98095.88;4141932;28;20208;-45
2022/11/20 00:09:24;;;;;;;3.47;3.20;;;;;;;4.19;100.00;98100.75;4150120;28;20307;-45
2022/11/20 00:11:26;;;;;;;3.28;3.08;;;;;;;4.18;100.00;98099.06;4138336;28;20300;-45
2022/11/20 00:13:28;;;;;;;3.00;2.78;;;;;;;4.19;100.00;98101.56;4136528;28;20617;-45
2022/11/20 00:15:30;;;;;;;2.42;2.22;;;;;;;4.23;100.00;98091.97;4140153;28;21615;-45
2022/11/20 00:17:32;;;;;;;2.58;2.38;;;;;;;4.22;100.00;98087.59;4138350;28;20614;-45
2022/11/20 00:19:34;;;;;;;2.70;2.50;;;;;;;4.30;100.00;98087.31;4140511;28;20326;-45
2022/11/20 00:21:36;;;;;;;2.80;2.60;;;;;;;4.25;100.00;98089.00;4120342;28;20202;-45
2022/11/20 00:23:38;;;;;;;2.70;2.50;;;;;;;4.27;100.00;98095.06;4137254;28;20749;-45
2022/11/20 00:25:39;;;;;;;2.72;2.47;;;;;;;4.32;100.00;98090.63;4142021;28;20261;-45
2022/11/20 00:27:41;;;;;;;3.40;3.10;;;;;;;4.35;100.00;98095.59;4126195;28;20213;-46
2022/11/20 00:29:43;;;;;;;2.83;2.60;;;;;;;4.37;100.00;98093.50;4145918;28;20209;-46
2022/11/20 00:31:44;;;;;;;4.20;3.80;;;;;;;4.28;100.00;98094.00;4140410;28;20224;-46
2022/11/20 00:33:46;;;;;;;3.80;3.47;;;;;;;4.33;100.00;98096.88;4154097;28;20236;-46
2022/11/20 00:35:48;;;;;;;4.10;3.80;;;;;;;4.38;100.00;98083.47;4152497;28;20205;-46
2022/11/20 00:37:50;;;;;;;4.43;4.13;;;;;;;4.36;100.00;98094.56;4138585;28;20225;-47
2022/11/20 00:39:51;;;;;;;4.65;4.25;;;;;;;4.43;100.00;98098.03;4139427;28;20305;-46
2022/11/20 00:41:53;;;;;;;4.18;3.58;;;;;;;4.44;100.00;98093.44;4153193;28;20207;-46
2022/11/20 00:43:55;;;;;;;4.40;3.80;;;;;;;4.51;100.00;98097.75;4126025;28;20715;-46
2022/11/20 00:45:58;;;;;;;5.10;4.70;;;;;;;4.50;100.00;98093.38;4137367;28;20210;-46
2022/11/20 00:48:00;;;;;;;4.03;3.72;;;;;;;4.47;100.00;98099.22;4141280;28;20292;-46
2022/11/20 00:50:02;;;;;;;3.80;3.50;;;;;;;4.48;100.00;98105.50;4133240;28;20202;-45
2022/11/20 00:52:04;;;;;;;4.43;4.03;;;;;;;4.50;100.00;98100.69;4135670;28;20216;-46
2022/11/20 00:54:05;;;;;;;3.55;3.25;;;;;;;4.59;100.00;98102.88;4136785;28;20261;-45
2022/11/20 00:56:10;;;;;;;3.95;3.63;;;;;;;4.48;100.00;98100.88;4135811;28;20552;-46
2022/11/20 00:58:12;;;;;;;2.70;2.50;;;;;;;4.37;100.00;98098.91;4151595;28;20613;-46
2022/11/20 01:00:15;;;;;;;4.07;3.65;;;;;;;4.16;100.00;98093.88;4135711;28;21098;-45
2022/11/20 01:02:17;;;;;;;4.38;3.97;;;;;;;4.13;100.00;98097.03;4139082;28;20205;-45
2022/11/20 01:04:19;;;;;;;3.80;3.50;;;;;;;4.06;100.00;98095.44;4150346;28;20223;-46
2022/11/20 01:06:32;;;;;;;4.50;4.13;;;;;;;3.96;100.00;98093.19;4140971;28;20663;-46
2022/11/20 01:08:34;;;;;;;4.47;4.07;;;;;;;4.09;100.00;98098.53;4148467;28;20614;-46
2022/11/20 01:10:36;;;;;;;4.07;3.67;;;;;;;4.11;100.00;98088.28;4150039;28;20292;-46
2022/11/20 01:12:38;;;;;;;3.58;3.25;;;;;;;4.02;100.00;98088.78;4122622;28;20296;-46
2022/11/20 01:14:40;;;;;;;5.32;4.93;;;;;;;3.96;100.00;98085.09;4137098;28;20225;-45
2022/11/20 01:16:43;;;;;;;4.35;3.95;;;;;;;4.03;100.00;98087.72;4140128;28;20272;-45
2022/11/20 01:18:47;;;;;;;4.78;4.38;;;;;;;4.11;100.00;98076.63;4138586;28;20900;-45
2022/11/20 01:20:49;;;;;;;4.63;4.30;;;;;;;4.11;100.00;98088.28;4136006;28;20301;-46
2022/11/20 01:22:51;;;;;;;4.25;3.85;;;;;;;4.17;100.00;98081.16;4134779;28;20209;-45
2022/11/20 01:24:52;;;;;;;4.85;4.35;;;;;;;4.28;100.00;98083.97;4139376;28;20209;-46
2022/11/20 01:26:54;;;;;;;5.10;4.70;;;;;;;4.27;100.00;98081.50;4136577;28;20217;-46
2022/11/20 01:28:57;;;;;;;4.90;4.50;;;;;;;4.28;100.00;98078.56;4131755;28;20237;-46
2022/11/20 01:30:59;;;;;;;4.28;3.90;;;;;;;4.32;100.00;98079.78;4137336;28;20255;-46
2022/11/20 01:33:00;;;;;;;4.22;3.83;;;;;;;4.29;100.00;98080.25;4127289;28;20205;-45
2022/11/20 01:35:02;;;;;;;4.00;3.67;;;;;;;4.30;100.00;98081.91;4137808;28;20237;-46
2022/11/20 01:37:04;;;;;;;4.13;3.83;;;;;;;4.29;100.00;98080.25;4138715;28;20209;-47
2022/11/20 01:39:14;;;;;;;5.43;4.93;;;;;;;4.37;100.00;98077.25;4135926;28;20232;-45
2022/11/20 01:43:36;;;;;;;7.82;3.55;;;;;;;4.29;100.00;98072.13;4134311;28;20276;-46
2022/11/20 01:45:47;;;;;;;3.90;3.60;;;;;;;4.32;100.00;98074.38;4134457;28;20224;-45
2022/11/20 01:47:50;;;;;;;4.30;3.85;;;;;;;4.26;100.00;98075.25;4149493;28;20578;-47
2022/11/20 01:49:59;;;;;;;4.30;3.90;;;;;;;4.44;100.00;98072.59;4121218;28;20697;-46
2022/11/20 01:52:14;;;;;;;4.03;3.70;;;;;;;4.39;100.00;98075.16;4152917;28;20284;-46
2022/11/20 01:54:19;;;;;;;4.03;3.72;;;;;;;4.38;100.00;98068.06;4149902;28;20242;-45
2022/11/20 01:56:22;;;;;;;4.40;3.70;;;;;;;4.41;100.00;98067.63;4135857;28;20297;-46
2022/11/20 01:58:28;;;;;;;3.70;3.40;;;;;;;4.40;100.00;98068.66;4137982;28;20240;-46
2022/11/20 02:00:30;;;;;;;4.68;4.28;;;;;;;4.37;100.00;98071.84;4129871;28;20308;-46
2022/11/20 02:02:32;;;;;;;3.90;3.45;;;;;;;4.41;100.00;98067.63;4150664;28;20309;-46
2022/11/20 02:04:34;;;;;;;5.32;4.90;;;;;;;4.48;100.00;98075.69;4136134;28;20268;-46
2022/11/20 02:06:39;;;;;;;3.95;3.60;;;;;;;4.37;100.00;98077.25;4132890;28;20243;-46
2022/11/20 02:08:41;;;;;;;4.10;3.70;;;;;;;4.40;100.00;98076.00;4135000;28;20201;-46
2022/11/20 02:10:43;;;;;;;5.60;4.20;;;;;;;4.43;100.00;98084.50;4134983;28;20275;-45
2022/11/20 02:15:05;;;;;;;5.22;4.75;;;;;;;4.51;100.00;98078.78;4137494;28;20335;-45
2022/11/20 02:17:08;;;;;;;4.57;4.18;;;;;;;4.53;100.00;98076.69;4132551;28;20221;-46
2022/11/20 02:19:16;;;;;;;6.15;4.43;;;;;;;4.48;100.00;98081.13;4150684;28;20229;-46
2022/11/20 02:21:50;;;;;;;3.78;3.35;;;;;;;4.51;100.00;98080.66;4135461;28;20570;-46
2022/11/20 02:23:55;;;;;;;5.32;3.95;;;;;;;4.53;100.00;98079.38;4122797;28;20261;-46
2022/11/20 02:25:58;;;;;;;4.72;4.32;;;;;;;4.24;100.00;98071.94;4138407;28;20284;-46
2022/11/20 02:28:00;;;;;;;4.45;4.05;;;;;;;4.23;100.00;98070.28;4131015;28;20292;-46
2022/11/20 02:30:04;;;;;;;5.50;4.00;;;;;;;4.30;100.00;98075.66;4128847;28;20293;-46
2022/11/20 02:32:06;;;;;;;5.43;3.90;;;;;;;4.12;100.00;98068.28;4133584;28;20444;-47
2022/11/20 02:34:08;;;;;;;3.65;3.30;;;;;;;4.10;100.00;98065.00;4136543;28;20225;-45
2022/11/20 02:36:11;;;;;;;4.38;3.97;;;;;;;4.21;100.00;98053.41;4139843;28;20205;-45
2022/11/20 02:38:14;;;;;;;5.03;3.85;;;;;;;4.22;100.00;98056.97;4147619;28;20263;-46
2022/11/20 02:40:15;;;;;;;4.43;4.03;;;;;;;4.22;100.00;98057.81;4151960;28;20213;-47
2022/11/20 02:42:18;;;;;;;3.95;3.55;;;;;;;4.27;100.00;98063.38;4139441;28;20240;-46
2022/11/20 02:44:20;;;;;;;5.82;3.72;;;;;;;4.29;100.00;98053.16;4135427;28;20237;-46
2022/11/20 02:46:21;;;;;;;3.80;3.50;;;;;;;4.30;100.00;98054.81;4138307;28;20296;-46
2022/11/20 02:48:23;;;;;;;3.58;3.28;;;;;;;4.37;100.00;98052.03;4136586;28;20245;-45
2022/11/20 02:50:25;;;;;;;4.47;4.07;;;;;;;4.40;100.00;98054.31;4134862;28;20210;-46
2022/11/20 02:52:27;;;;;;;4.90;4.50;;;;;;;4.55;100.00;98062.91;4152171;28;20278;-46
2022/11/20 02:54:29;;;;;;;4.50;4.20;;;;;;;4.50;100.00;98055.47;4139357;28;20237;-46
2022/11/20 02:56:31;;;;;;;5.32;4.82;;;;;;;4.50;100.00;98055.47;4124272;28;20249;-46
2022/11/20 02:58:33;;;;;;;3.70;3.38;;;;;;;4.52;100.00;98058.78;4125922;28;20286;-46
2022/11/20 03:00:35;;;;;;;4.38;3.25;;;;;;;4.55;100.00;98054.78;4134122;28;20241;-46
2022/11/20 03:02:36;;;;;;;4.70;4.25;;;;;;;4.63;100.00;98059.91;4134572;28;20252;-46
2022/11/20 03:04:38;;;;;;;3.80;3.53;;;;;;;4.61;100.00;98067.44;4135765;28;20356;-45
2022/11/20 03:06:40;;;;;;;3.88;3.55;;;;;;;4.59;100.00;98070.38;4140318;28;20238;-46
2022/11/20 03:08:42;;;;;;;4.35;3.45;;;;;;;4.58;100.00;98067.88;4135805;28;20212;-46
2022/11/20 03:10:44;;;;;;;4.70;3.80;;;;;;;4.54;100.00;98072.91;4134688;28;20215;-46
2022/11/20 03:12:45;;;;;;;3.65;3.35;;;;;;;4.39;100.00;98045.34;4136503;28;20214;-46
2022/11/20 03:14:47;;;;;;;3.78;3.47;;;;;;;4.43;100.00;98070.94;4142866;28;20216;-46
2022/11/20 03:16:53;;;;;;;3.50;3.28;;;;;;;4.52;100.00;98055.22;4153974;28;22337;-46
2022/11/20 03:18:55;;;;;;;3.92;3.25;;;;;;;4.48;100.00;98065.69;4130098;28;20781;-47
2022/11/20 03:20:58;;;;;;;4.10;3.70;;;;;;;4.64;100.00;98067.84;4138146;28;20304;-45
2022/11/20 03:23:00;;;;;;;5.68;3.75;;;;;;;4.54;100.00;98064.78;4136104;28;20308;-46
2022/11/20 03:25:03;;;;;;;4.13;3.83;;;;;;;4.50;100.00;98060.03;4134847;28;20295;-46
2022/11/20 03:27:05;;;;;;;3.05;2.85;;;;;;;4.55;100.00;98058.34;4141164;28;20725;-46
2022/11/20 03:29:06;;;;;;;4.22;3.92;;;;;;;4.57;100.00;98060.81;4140985;28;20312;-46
2022/11/20 03:31:10;;;;;;;3.70;3.40;;;;;;;4.61;100.00;98046.59;4142263;28;20553;-46
2022/11/20 03:33:12;;;;;;;3.97;3.67;;;;;;;4.65;100.00;98055.94;4139701;28;20236;-46
2022/11/20 03:35:14;;;;;;;4.30;3.90;;;;;;;4.74;100.00;98056.47;4123053;28;20216;-46
2022/11/20 03:37:15;;;;;;;4.45;4.10;;;;;;;4.76;100.00;98047.06;4151129;28;20292;-45
2022/11/20 03:39:17;;;;;;;4.00;3.60;;;;;;;4.79;100.00;98054.75;4137216;28;20226;-45
2022/11/20 03:41:25;;;;;;;4.75;4.30;;;;;;;4.87;100.00;98054.44;4153330;28;20291;-46
2022/11/20 03:43:27;;;;;;;5.60;4.15;;;;;;;4.91;100.00;98047.53;4140374;28;20266;-45
2022/11/20 03:45:28;;;;;;;5.45;3.47;;;;;;;4.89;100.00;98044.22;4140651;28;20228;-46
2022/11/20 03:47:30;;;;;;;4.63;4.22;;;;;;;4.95;100.00;98042.47;4138449;28;20330;-45
2022/11/20 03:49:32;;;;;;;5.28;4.78;;;;;;;4.96;100.00;98042.25;4137388;28;20264;-46
2022/11/20 03:51:35;;;;;;;4.70;4.30;;;;;;;5.00;100.00;98046.16;4133809;28;20202;-46
2022/11/20 03:53:37;;;;;;;5.93;4.72;;;;;;;5.13;100.00;98045.19;4130227;28;20569;-46
2022/11/20 03:55:39;;;;;;;5.78;5.30;;;;;;;5.09;100.00;98042.91;4141251;28;20256;-46
2022/11/20 03:57:40;;;;;;;5.00;4.50;;;;;;;5.18;100.00;98038.88;4120936;28;20755;-49
2022/11/20 03:59:42;;;;;;;4.68;4.28;;;;;;;5.27;100.00;98047.50;4141380;28;20320;-45
2022/11/20 04:01:44;;;;;;;4.85;4.40;;;;;;;5.21;100.00;98037.56;4139352;28;20296;-46
2022/11/20 04:03:52;;;;;;;4.72;4.22;;;;;;;5.22;100.00;98039.22;4137912;28;20292;-46
2022/11/20 04:05:54;;;;;;;4.75;4.35;;;;;;;5.18;100.00;98032.59;4128598;28;20296;-46
2022/11/20 04:07:55;;;;;;;4.65;4.25;;;;;;;5.24;100.00;98047.97;4132901;28;20309;-47
2022/11/20 04:09:57;;;;;;;4.85;4.30;;;;;;;5.19;100.00;98055.94;4137159;28;20241;-47
2022/11/20 04:11:59;;;;;;;5.40;5.00;;;;;;;5.15;100.00;98050.16;4140684;28;20209;-45
2022/11/20 04:14:03;;;;;;;5.78;4.88;;;;;;;5.29;100.00;98050.81;4139298;28;20227;-45
2022/11/20 04:16:06;;;;;;;5.25;4.82;;;;;;;5.34;100.00;98048.22;4139076;28;20244;-47
2022/11/20 04:18:08;;;;;;;5.72;5.13;;;;;;;5.42;100.00;98048.75;4140283;28;20229;-46
2022/11/20 04:20:10;;;;;;;5.22;4.32;;;;;;;5.40;100.00;98041.91;4154476;28;20288;-46
2022/11/20 04:22:12;;;;;;;4.90;4.50;;;;;;;5.46;100.00;98043.69;4152970;28;20212;-49
2022/11/20 04:24:13;;;;;;;4.53;4.13;;;;;;;5.55;100.00;98039.63;4152777;28;20233;-46
2022/11/20 04:26:15;;;;;;;5.32;4.82;;;;;;;5.60;100.00;98045.16;4136579;28;20889;-46
2022/11/20 04:28:17;;;;;;;4.32;4.03;;;;;;;5.64;100.00;98043.66;4138068;28;20223;-46
2022/11/20 04:30:19;;;;;;;4.70;4.30;;;;;;;5.67;100.00;98038.59;4126702;28;20340;-46
2022/11/20 04:32:20;;;;;;;4.65;4.25;;;;;;;5.68;100.00;98044.84;4134776;28;20240;-46
2022/11/20 04:34:22;;;;;;;3.35;3.03;;;;;;;5.66;100.00;98038.81;4152259;28;20228;-47
2022/11/20 04:36:26;;;;;;;5.28;4.85;;;;;;;5.70;100.00;98042.75;4139806;28;20201;-47
2022/11/20 04:38:27;;;;;;;6.00;4.57;;;;;;;5.68;100.00;98047.53;4138622;28;20695;-46
2022/11/20 04:40:29;;;;;;;5.03;4.63;;;;;;;5.72;100.00;98038.75;4113690;28;20217;-46
2022/11/20 04:42:31;;;;;;;5.50;5.10;;;;;;;5.74;100.00;98039.31;4145788;28;21078;-46
2022/11/20 04:44:33;;;;;;;5.03;4.63;;;;;;;5.70;100.00;98042.75;4134828;28;20229;-46
2022/11/20 04:46:38;;;;;;;4.85;4.45;;;;;;;5.68;100.00;98039.41;4121585;28;21199;-46
2022/11/20 04:48:39;;;;;;;4.85;4.45;;;;;;;5.62;100.00;98035.75;4136129;28;20210;-46
2022/11/20 04:50:41;;;;;;;4.38;4.00;;;;;;;5.62;100.00;98033.03;4132626;28;20209;-46
2022/11/20 04:52:43;;;;;;;4.40;4.10;;;;;;;5.57;100.00;98038.31;4136827;28;20294;-46
2022/11/20 04:54:44;;;;;;;5.10;4.70;;;;;;;5.62;100.00;98041.16;4116580;28;20276;-46
2022/11/20 04:56:49;;;;;;;5.35;3.63;;;;;;;5.70;100.00;98032.69;4132551;28;20209;-46
2022/11/20 04:58:51;;;;;;;4.53;4.15;;;;;;;5.65;100.00;98034.47;4135922;28;20295;-46
2022/11/20 05:00:53;;;;;;;3.22;3.03;;;;;;;5.75;100.00;98032.84;4138967;28;20205;-47
2022/11/20 05:02:54;;;;;;;4.95;4.60;;;;;;;5.72;100.00;98035.19;4135802;28;20205;-46
2022/11/20 05:04:56;;;;;;;4.63;4.22;;;;;;;5.77;100.00;98036.13;4137057;28;20210;-46
2022/11/20 05:06:58;;;;;;;4.78;4.28;;;;;;;5.85;100.00;98030.44;4134748;28;20241;-46
2022/11/20 05:09:00;;;;;;;3.85;3.55;;;;;;;5.85;100.00;98033.16;4139052;28;20215;-47
2022/11/20 05:11:07;;;;;;;3.30;3.00;;;;;;;5.95;100.00;98019.00;4138677;28;20213;-46
2022/11/20 05:13:09;;;;;;;4.00;3.55;;;;;;;5.96;100.00;98020.66;4138950;28;21023;-46
2022/11/20 05:15:11;;;;;;;4.63;4.03;;;;;;;5.98;100.00;98019.38;4138880;28;20209;-46
2022/11/20 05:17:13;;;;;;;11.10;4.10;;;;;;;6.04;100.00;98021.13;4140072;28;20296;-46
2022/11/20 05:19:14;;;;;;;3.53;3.22;;;;;;;5.98;100.00;98013.09;4137966;28;20257;-46
2022/11/20 05:21:16;;;;;;;3.97;3.67;;;;;;;5.97;100.00;98016.88;4136468;28;20213;-46
2022/11/20 05:23:18;;;;;;;3.58;3.28;;;;;;;6.05;100.00;98011.09;4136850;28;20257;-45
2022/11/20 05:25:20;;;;;;;5.68;4.05;;;;;;;6.08;100.00;98011.47;4124576;28;20229;-46
2022/11/20 05:27:22;;;;;;;3.80;3.50;;;;;;;6.08;100.00;98011.47;4136207;28;20232;-46
2022/11/20 05:29:23;;;;;;;3.90;3.55;;;;;;;6.11;100.00;98012.88;4134635;28;20675;-47
2022/11/20 05:31:25;;;;;;;3.13;2.90;;;;;;;6.16;100.00;98021.16;4136175;28;20201;-46
2022/11/20 05:33:29;;;;;;;3.63;3.33;;;;;;;6.11;100.00;98013.72;4135172;28;20260;-45
2022/11/20 05:35:30;;;;;;;2.80;2.60;;;;;;;6.19;100.00;98015.25;4133500;28;20214;-46
2022/11/20 05:37:32;;;;;;;3.00;2.70;;;;;;;6.10;100.00;98011.22;4137089;28;20212;-47
2022/11/20 05:39:34;;;;;;;3.25;2.92;;;;;;;6.18;100.00;98019.88;4139792;28;20841;-46
2022/11/20 05:41:35;;;;;;;3.95;3.65;;;;;;;6.14;100.00;98010.53;4135237;28;20320;-46
2022/11/20 05:43:39;;;;;;;2.85;2.65;;;;;;;6.10;100.00;98011.22;4137312;28;20221;-45
2022/11/20 05:45:41;;;;;;;3.35;2.70;;;;;;;6.14;100.00;98006.97;4140215;28;20206;-46
2022/11/20 05:47:42;;;;;;;3.42;3.13;;;;;;;6.18;100.00;98008.16;4134409;28;20316;-46
2022/11/20 05:49:44;;;;;;;2.40;2.20;;;;;;;6.14;100.00;98012.41;4141213;28;21410;-45
2022/11/20 05:51:46;;;;;;;3.75;2.38;;;;;;;6.17;100.00;98006.53;4136831;28;20206;-46
2022/11/20 05:53:47;;;;;;;2.97;2.70;;;;;;;6.17;100.00;98017.38;4132378;28;20722;-46
2022/11/20 05:56:02;;;;;;;2.83;2.63;;;;;;;6.09;100.00;98015.00;4137269;28;20668;-46
2022/11/20 05:58:03;;;;;;;2.78;2.58;;;;;;;6.16;100.00;98011.09;4136426;28;20217;-46
2022/11/20 06:00:06;;;;;;;2.30;2.10;;;;;;;6.11;100.00;98011.00;4152501;28;20217;-46
2022/11/20 06:02:07;;;;;;;2.78;2.58;;;;;;;6.20;100.00;98016.91;4152730;28;20215;-46
2022/11/20 06:04:09;;;;;;;2.58;2.38;;;;;;;6.14;100.00;98017.84;4134928;28;20229;-46
2022/11/20 06:06:11;;;;;;;7.60;2.63;;;;;;;6.20;100.00;98012.31;4125218;28;21384;-46
2022/11/20 06:08:13;;;;;;;2.97;2.63;;;;;;;6.16;100.00;98018.44;4150607;28;20637;-46
2022/11/20 06:10:14;;;;;;;2.67;2.47;;;;;;;6.19;100.00;98031.53;4136424;28;20702;-45
2022/11/20 06:12:16;;;;;;;5.28;2.65;;;;;;;6.20;100.00;98027.75;4122252;28;20213;-46
2022/11/20 06:14:18;;;;;;;2.78;2.30;;;;;;;6.21;100.00;98022.09;4141117;28;20225;-47
2022/11/20 06:16:20;;;;;;;2.00;1.90;;;;;;;6.23;100.00;98021.88;4134714;28;20202;-46
2022/11/20 06:18:21;;;;;;;2.70;2.33;;;;;;;6.25;100.00;98019.75;4138589;28;20258;-46
2022/11/20 06:20:23;;;;;;;2.03;1.92;;;;;;;6.25;100.00;98020.59;4137909;28;20214;-46
2022/11/20 06:22:25;;;;;;;2.35;2.10;;;;;;;6.27;100.00;98020.34;4134441;28;20206;-46
2022/11/20 06:24:26;;;;;;;2.65;2.45;;;;;;;6.25;100.00;98019.75;4135425;28;20241;-46
2022/11/20 06:26:28;;;;;;;2.47;2.28;;;;;;;6.23;100.00;98021.88;4136488;28;20208;-46
2022/11/20 06:28:30;;;;;;;2.47;2.38;;;;;;;6.21;100.00;98013.97;4134471;28;20206;-46
2022/11/20 06:30:32;;;;;;;1.65;1.55;;;;;;;6.18;100.00;98008.16;4134457;28;20698;-46
2022/11/20 06:32:33;;;;;;;2.67;2.47;;;;;;;6.19;100.00;98012.53;4138501;28;20284;-46
2022/11/20 06:34:35;;;;;;;1.98;1.88;;;;;;;6.25;100.00;98003.44;4136271;28;20317;-46
2022/11/20 06:36:37;;;;;;;2.67;2.35;;;;;;;6.26;100.00;98015.97;4150983;28;20268;-45
2022/11/20 06:38:39;;;;;;;2.25;2.00;;;;;;;6.26;100.00;98015.97;4134430;28;20220;-45
2022/11/20 06:40:41;;;;;;;2.50;2.30;;;;;;;6.29;100.00;98016.31;4138094;28;20257;-46
2022/11/20 06:42:43;;;;;;;3.25;2.97;;;;;;;6.28;100.00;98019.28;4134563;28;20788;-46
2022/11/20 06:44:44;;;;;;;2.33;2.15;;;;;;;6.31;100.00;98014.22;4135848;28;20352;-46
2022/11/20 06:46:46;;;;;;;2.50;2.30;;;;;;;6.29;100.00;98020.94;4149638;28;20208;-46
2022/11/20 06:48:49;;;;;;;3.30;2.25;;;;;;;6.28;100.00;98019.28;4139808;28;20209;-46
2022/11/20 06:50:51;;;;;;;2.60;2.40;;;;;;;6.27;100.00;98033.91;4135011;28;20232;-46
2022/11/20 06:52:52;;;;;;;2.22;2.03;;;;;;;6.25;100.00;98025.19;4135057;28;20205;-46
2022/11/20 06:54:54;;;;;;;2.53;2.13;;;;;;;6.30;100.00;98028.03;4150309;28;20216;-46
2022/11/20 06:56:56;;;;;;;2.00;1.90;;;;;;;6.33;100.00;98032.97;4151186;28;20215;-46
2022/11/20 06:58:57;;;;;;;3.22;2.95;;;;;;;6.33;100.00;98032.97;4133307;28;20333;-47
2022/11/20 07:01:06;;;;;;;1.77;1.67;;;;;;;6.34;100.00;98035.47;4139513;28;20197;-45
2022/11/20 07:03:09;;;;;;;2.10;2.00;;;;;;;6.38;100.00;98035.81;4131775;28;20725;-46
2022/11/20 07:05:11;;;;;;;2.08;1.98;;;;;;;6.35;100.00;98036.31;4136878;28;20204;-46
2022/11/20 07:07:12;;;;;;;2.28;2.10;;;;;;;6.34;100.00;98040.91;4131694;28;20209;-46
2022/11/20 07:09:14;;;;;;;2.97;2.75;;;;;;;6.40;100.00;98033.69;4130584;28;20577;-46
2022/11/20 07:11:16;;;;;;;3.17;2.97;;;;;;;6.34;100.00;98045.50;4131938;28;20208;-46
2022/11/20 07:13:18;;;;;;;2.50;2.30;;;;;;;6.31;100.00;98041.38;4135034;28;20288;-46
2022/11/20 07:15:20;;;;;;;2.50;2.33;;;;;;;6.36;100.00;98040.69;4147450;28;21240;-46
2022/11/20 07:17:22;;;;;;;3.17;2.30;;;;;;;6.37;100.00;98040.41;4131942;28;20208;-45
2022/11/20 07:19:24;;;;;;;2.75;2.60;;;;;;;6.35;100.00;98044.47;4149708;28;20221;-46
2022/11/20 07:21:25;;;;;;;2.72;2.58;;;;;;;6.38;100.00;98052.97;4134327;28;20206;-46
2022/11/20 07:23:27;;;;;;;2.97;2.67;;;;;;;6.36;100.00;98044.19;4138390;28;20226;-46
2022/11/20 07:25:30;;;;;;;3.25;2.95;;;;;;;6.46;100.00;98043.63;4135443;28;20248;-45
2022/11/20 07:27:32;;;;;;;3.35;3.05;;;;;;;6.41;100.00;98046.22;4135175;28;20355;-46
2022/11/20 07:29:33;;;;;;;3.45;3.15;;;;;;;6.46;100.00;98043.63;4139820;28;20206;-46
2022/11/20 07:31:35;;;;;;;3.33;3.03;;;;;;;6.46;100.00;98041.75;4132170;28;20206;-46
2022/11/20 07:33:37;;;;;;;3.30;3.10;;;;;;;6.45;100.00;98052.84;4128221;28;20842;-46
2022/11/20 07:35:38;;;;;;;3.47;2.50;;;;;;;6.51;100.00;98050.03;4136250;28;20668;-45
2022/11/20 07:37:40;;;;;;;3.20;2.90;;;;;;;6.49;100.00;98048.59;4148702;28;20212;-46
2022/11/20 07:39:42;;;;;;;5.40;3.30;;;;;;;6.45;100.00;98050.97;4151723;28;20258;-45
2022/11/20 07:41:44;;;;;;;3.85;3.55;;;;;;;6.51;100.00;98051.91;4135786;28;20293;-45
2022/11/20 07:43:45;;;;;;;4.03;2.80;;;;;;;6.55;100.00;98050.38;4131536;28;20248;-45
2022/11/20 07:45:47;;;;;;;6.30;3.70;;;;;;;6.51;100.00;98062.78;4134889;28;20297;-46
2022/11/20 07:47:49;;;;;;;3.15;2.95;;;;;;;6.52;100.00;98065.25;4134116;28;20664;-46
2022/11/20 07:49:51;;;;;;;4.57;4.28;;;;;;;6.53;100.00;98066.91;4134934;28;20209;-46
2022/11/20 07:51:55;;;;;;;3.15;2.95;;;;;;;6.54;100.00;98067.72;4133641;28;20206;-46
2022/11/20 07:54:04;;;;;;;3.85;3.55;;;;;;;6.54;100.00;98070.44;4134179;28;20340;-45
2022/11/20 07:56:07;;;;;;;7.43;3.88;;;;;;;6.56;100.00;98068.34;4147731;28;20266;-46
2022/11/20 07:58:08;;;;;;;6.38;4.80;;;;;;;6.57;100.00;98067.28;4133241;28;20216;-45
2022/11/20 08:00:11;;;;;;;5.35;4.95;;;;;;;6.60;100.00;98061.34;4133790;28;20233;-46
2022/11/20 08:02:13;;;;;;;5.28;4.88;;;;;;;6.59;100.00;98076.00;4151259;28;20304;-46
2022/11/20 08:04:16;;;;;;;5.50;5.00;;;;;;;6.67;100.00;98078.38;4135788;28;20225;-46
2022/11/20 08:06:19;;;;;;;4.80;4.40;;;;;;;6.74;100.00;98068.19;4138249;28;20209;-45
2022/11/20 08:08:21;;;;;;;5.85;5.35;;;;;;;6.76;100.00;98074.25;4149884;28;20293;-45
2022/11/20 08:10:23;;;;;;;6.15;5.65;;;;;;;6.78;100.00;98080.28;4136446;28;20202;-45
2022/11/20 08:14:45;;;;;;;6.45;5.88;;;;;;;6.84;100.00;98079.31;4140160;28;20699;-45
2022/11/20 08:16:49;;;;;;;5.70;5.18;;;;;;;6.87;100.00;98084.28;4150848;28;20224;-45
2022/11/20 08:18:50;;;;;;;5.72;5.22;;;;;;;6.85;100.00;98086.41;4152155;28;20207;-46
2022/11/20 08:20:55;;;;;;;5.05;4.22;;;;;;;6.86;100.00;98088.06;4140715;28;20225;-46
2022/11/20 08:23:05;;;;;;;4.93;4.53;;;;;;;6.92;100.00;98092.56;4141023;28;20201;-45
2022/11/20 08:25:07;;;;;;;6.85;5.35;;;;;;;6.93;100.00;98088.78;4140810;28;20240;-46
2022/11/20 08:27:09;;;;;;;5.55;5.07;;;;;;;6.91;100.00;98088.19;4136658;28;20219;-45
2022/11/20 08:29:11;;;;;;;6.05;5.55;;;;;;;6.90;100.00;98087.34;4135914;28;20229;-45
2022/11/20 08:31:13;;;;;;;6.13;5.35;;;;;;;6.96;100.00;98080.16;4138580;28;20300;-46
2022/11/20 08:33:14;;;;;;;5.03;4.63;;;;;;;6.94;100.00;98084.97;4138958;28;20308;-46
2022/11/20 08:35:16;;;;;;;6.10;5.60;;;;;;;6.93;100.00;98089.59;4148787;28;20197;-46
2022/11/20 08:37:18;;;;;;;6.43;5.72;;;;;;;6.91;100.00;98096.34;4138922;28;20212;-46
2022/11/20 08:39:19;;;;;;;5.88;5.38;;;;;;;6.98;100.00;98102.50;4123633;28;20314;-46
2022/11/20 08:41:27;;;;;;;12.35;6.30;;;;;;;7.03;100.00;98097.19;4136921;28;20217;-46
2022/11/20 08:43:29;;;;;;;6.07;5.68;;;;;;;7.01;100.00;98102.84;4135005;28;20272;-46
2022/11/20 08:45:31;;;;;;;5.63;5.22;;;;;;;7.10;100.00;98095.16;4140389;28;20324;-46
2022/11/20 08:47:35;;;;;;;5.38;4.97;;;;;;;7.14;100.00;98107.19;4140963;28;20272;-45
2022/11/20 08:49:37;;;;;;;4.95;4.55;;;;;;;7.16;100.00;98105.09;4151292;28;20205;-46
2022/11/20 08:51:39;;;;;;;5.53;5.13;;;;;;;7.14;100.00;98101.75;4140411;28;20316;-45
2022/11/20 08:53:41;;;;;;;4.97;4.57;;;;;;;7.16;100.00;98105.09;4141944;28;20706;-46
2022/11/20 08:55:43;;;;;;;6.28;5.78;;;;;;;7.21;100.00;98107.94;4140132;28;20206;-46
2022/11/20 08:57:44;;;;;;;4.97;4.55;;;;;;;7.16;100.00;98107.81;4132436;28;20206;-45
2022/11/20 08:59:51;;;;;;;5.90;5.47;;;;;;;7.17;100.00;98109.47;4136846;28;20225;-46
2022/11/20 09:02:07;;;;;;;5.05;4.65;;;;;;;7.15;100.00;98109.69;4131119;28;20249;-47
2022/11/20 09:04:09;;;;;;;5.15;4.72;;;;;;;7.15;100.00;98115.13;4130564;28;20237;-45
2022/11/20 09:06:11;;;;;;;5.43;5.00;;;;;;;7.17;100.00;98121.16;4134213;28;21867;-46
2022/11/20 09:08:13;;;;;;;5.07;4.47;;;;;;;7.20;100.00;98111.69;4149708;28;20209;-45
2022/11/20 09:10:14;;;;;;;6.00;5.40;;;;;;;7.26;100.00;98116.19;4140792;28;20204;-45
2022/11/20 09:12:25;;;;;;;4.95;4.45;;;;;;;7.29;100.00;98119.25;4152111;28;20205;-45
2022/11/20 09:14:28;;;;;;;4.65;4.28;;;;;;;7.31;100.00;98124.47;4151907;28;20236;-46
2022/11/20 09:16:30;;;;;;;4.40;4.10;;;;;;;7.29;100.00;98115.72;4135761;28;20208;-45
2022/11/20 09:18:35;;;;;;;5.25;4.75;;;;;;;7.30;100.00;98117.38;4150161;28;20315;-45
2022/11/20 09:20:37;;;;;;;4.88;4.50;;;;;;;7.29;100.00;98118.44;4135636;28;20225;-46
2022/11/20 09:22:39;;;;;;;4.70;4.30;;;;;;;7.24;100.00;98119.16;4150295;28;20209;-45
2022/11/20 09:24:42;;;;;;;4.68;4.38;;;;;;;7.26;100.00;98110.72;4136693;28;20237;-46
2022/11/20 09:26:44;;;;;;;5.05;4.55;;;;;;;7.26;100.00;98117.03;4135868;28;20616;-46
2022/11/20 09:28:46;;;;;;;4.03;3.72;;;;;;;7.27;100.00;98120.53;4138791;28;20659;-46
2022/11/20 09:30:48;;;;;;;6.97;4.57;;;;;;;7.32;100.00;98120.66;4119978;28;20210;-46
2022/11/20 09:32:49;;;;;;;4.53;4.13;;;;;;;7.36;100.00;98125.38;4139216;28;20297;-46
2022/11/20 09:34:51;;;;;;;3.67;3.38;;;;;;;7.39;100.00;98122.19;4137613;28;20210;-46
2022/11/20 09:36:53;;;;;;;7.45;4.68;;;;;;;7.49;100.00;98121.59;4133394;28;20213;-46
2022/11/20 09:38:56;;;;;;;4.65;3.50;;;;;;;7.38;100.00;98125.16;4139125;28;20213;-46
2022/11/20 09:41:05;;;;;;;4.68;4.28;;;;;;;7.41;100.00;98125.50;4138760;28;20233;-45
2022/11/20 09:43:15;;;;;;;5.63;5.13;;;;;;;7.41;100.00;98119.25;4141422;28;20204;-46
2022/11/20 09:45:41;;;;;;;3.85;3.45;;;;;;;7.47;100.00;98129.16;4138314;28;20213;-47